sensor_id;sensor_type;location;lat;lon;timestamp;P1;durP1;ratioP1;P2;durP2;ratioP2
6828;SDS011;17930;48.592;8.868;2023-05-07T00:01:58;5.57;;;2.70;;
6828;SDS011;17930;48.592;8.868;2023-05-07T00:04:25;3.37;;;2.50;;
6828;SDS011;17930;48.592;8.868;2023-05-07T00:06:53;6.47;;;2.33;;
6828;SDS011;17930;48.592;8.868;2023-05-07T00:09:20;3.40;;;2.40;;
6828;SDS011;17930;48.592;8.868;2023-05-07T00:11:47;3.57;;;2.10;;
6828;SDS011;17930;48.592;8.868;2023-05-07T00:14:15;2.87;;;2.40;;
6828;SDS011;17930;48.592;8.868;2023-05-07T00:16:41;6.63;;;2.40;;
6828;SDS011;17930;48.592;8.868;2023-05-07T00:19:08;3.87;;;2.40;;
6828;SDS011;17930;48.592;8.868;2023-05-07T00:21:34;4.17;;;2.77;;
6828;SDS011;17930;48.592;8.868;2023-05-07T00:24:01;4.33;;;2.47;;
6828;SDS011;17930;48.592;8.868;2023-05-07T00:26:28;2.80;;;2.30;;
6828;SDS011;17930;48.592;8.868;2023-05-07T00:28:55;4.20;;;3.00;;
6828;SDS011;17930;48.592;8.868;2023-05-07T00:31:23;4.43;;;2.37;;
6828;SDS011;17930;48.592;8.868;2023-05-07T00:33:49;4.97;;;2.50;;
6828;SDS011;17930;48.592;8.868;2023-05-07T00:36:16;4.73;;;2.47;;
6828;SDS011;17930;48.592;8.868;2023-05-07T00:38:43;4.47;;;2.90;;
6828;SDS011;17930;48.592;8.868;2023-05-07T00:41:09;5.83;;;2.70;;
6828;SDS011;17930;48.592;8.868;2023-05-07T00:43:36;5.07;;;2.40;;
6828;SDS011;17930;48.592;8.868;2023-05-07T00:46:03;2.97;;;2.47;;
6828;SDS011;17930;48.592;8.868;2023-05-07T00:48:31;3.53;;;2.50;;
6828;SDS011;17930;48.592;8.868;2023-05-07T00:50:58;4.83;;;2.53;;
6828;SDS011;17930;48.592;8.868;2023-05-07T00:53:25;5.13;;;2.60;;
6828;SDS011;17930;48.592;8.868;2023-05-07T00:55:52;3.60;;;2.30;;
6828;SDS011;17930;48.592;8.868;2023-05-07T00:58:19;3.03;;;2.60;;
6828;SDS011;17930;48.592;8.868;2023-05-07T01:00:46;5.83;;;2.80;;
6828;SDS011;17930;48.592;8.868;2023-05-07T01:03:12;5.70;;;2.67;;
6828;SDS011;17930;48.592;8.868;2023-05-07T01:05:40;4.60;;;2.77;;
6828;SDS011;17930;48.592;8.868;2023-05-07T01:08:09;3.83;;;2.67;;
6828;SDS011;17930;48.592;8.868;2023-05-07T01:10:37;4.40;;;2.80;;
6828;SDS011;17930;48.592;8.868;2023-05-07T01:13:08;2.77;;;2.57;;
6828;SDS011;17930;48.592;8.868;2023-05-07T01:15:35;4.40;;;2.40;;
6828;SDS011;17930;48.592;8.868;2023-05-07T01:18:02;3.50;;;2.23;;
6828;SDS011;17930;48.592;8.868;2023-05-07T01:20:28;5.00;;;2.70;;
6828;SDS011;17930;48.592;8.868;2023-05-07T01:22:57;5.07;;;2.70;;
6828;SDS011;17930;48.592;8.868;2023-05-07T01:25:24;2.63;;;2.27;;
6828;SDS011;17930;48.592;8.868;2023-05-07T01:27:50;4.77;;;2.50;;
6828;SDS011;17930;48.592;8.868;2023-05-07T01:30:17;3.97;;;2.60;;
6828;SDS011;17930;48.592;8.868;2023-05-07T01:32:48;3.13;;;2.10;;
6828;SDS011;17930;48.592;8.868;2023-05-07T01:35:18;3.87;;;2.93;;
6828;SDS011;17930;48.592;8.868;2023-05-07T01:37:46;3.13;;;2.83;;
6828;SDS011;17930;48.592;8.868;2023-05-07T01:40:14;6.13;;;2.60;;
6828;SDS011;17930;48.592;8.868;2023-05-07T01:42:41;4.43;;;2.60;;
6828;SDS011;17930;48.592;8.868;2023-05-07T01:45:10;3.07;;;2.50;;
6828;SDS011;17930;48.592;8.868;2023-05-07T01:47:37;4.30;;;2.67;;
6828;SDS011;17930;48.592;8.868;2023-05-07T01:50:05;4.13;;;2.57;;
6828;SDS011;17930;48.592;8.868;2023-05-07T01:52:34;2.93;;;2.50;;
6828;SDS011;17930;48.592;8.868;2023-05-07T01:55:01;3.43;;;2.50;;
6828;SDS011;17930;48.592;8.868;2023-05-07T01:57:28;3.73;;;2.60;;
6828;SDS011;17930;48.592;8.868;2023-05-07T01:59:55;5.23;;;2.93;;
6828;SDS011;17930;48.592;8.868;2023-05-07T02:02:22;4.30;;;2.30;;
6828;SDS011;17930;48.592;8.868;2023-05-07T02:04:49;5.67;;;2.43;;
6828;SDS011;17930;48.592;8.868;2023-05-07T02:07:15;5.57;;;2.80;;
6828;SDS011;17930;48.592;8.868;2023-05-07T02:09:42;4.80;;;2.50;;
6828;SDS011;17930;48.592;8.868;2023-05-07T02:12:08;4.90;;;2.40;;
6828;SDS011;17930;48.592;8.868;2023-05-07T02:14:37;5.47;;;2.77;;
6828;SDS011;17930;48.592;8.868;2023-05-07T02:17:03;2.67;;;2.10;;
6828;SDS011;17930;48.592;8.868;2023-05-07T02:19:30;5.60;;;2.53;;
6828;SDS011;17930;48.592;8.868;2023-05-07T02:21:56;5.73;;;2.63;;
6828;SDS011;17930;48.592;8.868;2023-05-07T02:24:23;4.33;;;2.50;;
6828;SDS011;17930;48.592;8.868;2023-05-07T02:26:50;3.77;;;2.43;;
6828;SDS011;17930;48.592;8.868;2023-05-07T02:29:17;4.60;;;2.40;;
6828;SDS011;17930;48.592;8.868;2023-05-07T02:31:45;5.90;;;2.80;;
6828;SDS011;17930;48.592;8.868;2023-05-07T02:34:12;4.77;;;2.87;;
6828;SDS011;17930;48.592;8.868;2023-05-07T02:36:39;2.87;;;2.30;;
6828;SDS011;17930;48.592;8.868;2023-05-07T02:39:06;3.77;;;2.47;;
6828;SDS011;17930;48.592;8.868;2023-05-07T02:41:32;4.17;;;2.63;;
6828;SDS011;17930;48.592;8.868;2023-05-07T02:43:59;3.67;;;2.50;;
6828;SDS011;17930;48.592;8.868;2023-05-07T02:46:26;4.30;;;2.97;;
6828;SDS011;17930;48.592;8.868;2023-05-07T02:48:54;4.40;;;2.57;;
6828;SDS011;17930;48.592;8.868;2023-05-07T02:51:21;3.60;;;2.40;;
6828;SDS011;17930;48.592;8.868;2023-05-07T02:53:48;3.33;;;2.70;;
6828;SDS011;17930;48.592;8.868;2023-05-07T02:56:15;3.90;;;3.00;;
6828;SDS011;17930;48.592;8.868;2023-05-07T02:58:41;5.97;;;2.50;;
6828;SDS011;17930;48.592;8.868;2023-05-07T03:01:08;5.23;;;2.37;;
6828;SDS011;17930;48.592;8.868;2023-05-07T03:03:35;2.80;;;2.50;;
6828;SDS011;17930;48.592;8.868;2023-05-07T03:06:04;6.00;;;3.00;;
6828;SDS011;17930;48.592;8.868;2023-05-07T03:08:31;2.97;;;2.67;;
6828;SDS011;17930;48.592;8.868;2023-05-07T03:10:58;4.93;;;3.03;;
6828;SDS011;17930;48.592;8.868;2023-05-07T03:13:25;5.27;;;2.53;;
6828;SDS011;17930;48.592;8.868;2023-05-07T03:15:51;3.37;;;2.73;;
6828;SDS011;17930;48.592;8.868;2023-05-07T03:18:22;3.40;;;2.93;;
6828;SDS011;17930;48.592;8.868;2023-05-07T03:20:51;4.43;;;3.23;;
6828;SDS011;17930;48.592;8.868;2023-05-07T03:23:19;3.53;;;2.37;;
6828;SDS011;17930;48.592;8.868;2023-05-07T03:25:45;4.40;;;2.67;;
6828;SDS011;17930;48.592;8.868;2023-05-07T03:28:12;3.67;;;2.83;;
6828;SDS011;17930;48.592;8.868;2023-05-07T03:30:39;3.50;;;2.63;;
6828;SDS011;17930;48.592;8.868;2023-05-07T03:33:05;5.10;;;2.97;;
6828;SDS011;17930;48.592;8.868;2023-05-07T03:35:32;4.20;;;2.80;;
6828;SDS011;17930;48.592;8.868;2023-05-07T03:37:59;3.93;;;2.63;;
6828;SDS011;17930;48.592;8.868;2023-05-07T03:40:26;6.37;;;3.00;;
6828;SDS011;17930;48.592;8.868;2023-05-07T03:42:53;5.67;;;3.27;;
6828;SDS011;17930;48.592;8.868;2023-05-07T03:45:20;3.80;;;2.53;;
6828;SDS011;17930;48.592;8.868;2023-05-07T03:47:46;5.07;;;2.83;;
6828;SDS011;17930;48.592;8.868;2023-05-07T03:50:13;5.27;;;3.20;;
6828;SDS011;17930;48.592;8.868;2023-05-07T03:52:40;4.57;;;2.83;;
6828;SDS011;17930;48.592;8.868;2023-05-07T03:55:07;3.67;;;2.97;;
6828;SDS011;17930;48.592;8.868;2023-05-07T03:57:36;3.33;;;2.97;;
6828;SDS011;17930;48.592;8.868;2023-05-07T04:00:02;3.87;;;3.17;;
6828;SDS011;17930;48.592;8.868;2023-05-07T04:02:30;3.33;;;2.60;;
6828;SDS011;17930;48.592;8.868;2023-05-07T04:04:57;4.20;;;3.27;;
6828;SDS011;17930;48.592;8.868;2023-05-07T04:07:24;3.53;;;3.10;;
6828;SDS011;17930;48.592;8.868;2023-05-07T04:09:50;4.83;;;3.30;;
6828;SDS011;17930;48.592;8.868;2023-05-07T04:12:17;4.60;;;2.90;;
6828;SDS011;17930;48.592;8.868;2023-05-07T04:14:45;5.10;;;3.37;;
6828;SDS011;17930;48.592;8.868;2023-05-07T04:17:12;3.73;;;2.97;;
6828;SDS011;17930;48.592;8.868;2023-05-07T04:19:39;5.10;;;2.90;;
6828;SDS011;17930;48.592;8.868;2023-05-07T04:22:10;6.20;;;3.27;;
6828;SDS011;17930;48.592;8.868;2023-05-07T04:24:36;7.50;;;3.30;;
6828;SDS011;17930;48.592;8.868;2023-05-07T04:27:03;4.47;;;3.03;;
6828;SDS011;17930;48.592;8.868;2023-05-07T04:29:31;5.80;;;3.43;;
6828;SDS011;17930;48.592;8.868;2023-05-07T04:31:59;4.77;;;3.47;;
6828;SDS011;17930;48.592;8.868;2023-05-07T04:34:26;3.67;;;3.00;;
6828;SDS011;17930;48.592;8.868;2023-05-07T04:36:52;4.63;;;3.00;;
6828;SDS011;17930;48.592;8.868;2023-05-07T04:39:19;4.97;;;3.03;;
6828;SDS011;17930;48.592;8.868;2023-05-07T04:41:46;5.50;;;3.40;;
6828;SDS011;17930;48.592;8.868;2023-05-07T04:44:12;6.07;;;3.50;;
6828;SDS011;17930;48.592;8.868;2023-05-07T04:46:39;5.60;;;3.23;;
6828;SDS011;17930;48.592;8.868;2023-05-07T04:49:07;6.60;;;3.23;;
6828;SDS011;17930;48.592;8.868;2023-05-07T04:51:33;3.13;;;2.83;;
6828;SDS011;17930;48.592;8.868;2023-05-07T04:54:00;4.23;;;3.17;;
6828;SDS011;17930;48.592;8.868;2023-05-07T04:56:27;3.87;;;3.20;;
6828;SDS011;17930;48.592;8.868;2023-05-07T04:58:54;3.53;;;3.00;;
6828;SDS011;17930;48.592;8.868;2023-05-07T05:01:21;4.73;;;3.53;;
6828;SDS011;17930;48.592;8.868;2023-05-07T05:03:47;4.53;;;3.20;;
6828;SDS011;17930;48.592;8.868;2023-05-07T05:06:15;5.50;;;3.33;;
6828;SDS011;17930;48.592;8.868;2023-05-07T05:08:42;6.57;;;3.30;;
6828;SDS011;17930;48.592;8.868;2023-05-07T05:11:09;5.20;;;3.37;;
6828;SDS011;17930;48.592;8.868;2023-05-07T05:13:35;4.20;;;2.73;;
6828;SDS011;17930;48.592;8.868;2023-05-07T05:16:02;3.70;;;3.10;;
6828;SDS011;17930;48.592;8.868;2023-05-07T05:18:29;4.67;;;2.87;;
6828;SDS011;17930;48.592;8.868;2023-05-07T05:20:55;4.30;;;2.93;;
6828;SDS011;17930;48.592;8.868;2023-05-07T05:23:23;4.57;;;2.87;;
6828;SDS011;17930;48.592;8.868;2023-05-07T05:25:54;3.83;;;2.80;;
6828;SDS011;17930;48.592;8.868;2023-05-07T05:28:21;3.17;;;2.40;;
6828;SDS011;17930;48.592;8.868;2023-05-07T05:30:48;4.53;;;2.77;;
6828;SDS011;17930;48.592;8.868;2023-05-07T05:33:15;3.97;;;2.70;;
6828;SDS011;17930;48.592;8.868;2023-05-07T05:35:41;5.30;;;2.97;;
6828;SDS011;17930;48.592;8.868;2023-05-07T05:38:08;3.63;;;2.53;;
6828;SDS011;17930;48.592;8.868;2023-05-07T05:40:36;5.47;;;2.60;;
6828;SDS011;17930;48.592;8.868;2023-05-07T05:43:03;4.63;;;2.80;;
6828;SDS011;17930;48.592;8.868;2023-05-07T05:45:30;4.90;;;2.73;;
6828;SDS011;17930;48.592;8.868;2023-05-07T05:47:56;3.27;;;2.93;;
6828;SDS011;17930;48.592;8.868;2023-05-07T05:50:23;2.97;;;2.30;;
6828;SDS011;17930;48.592;8.868;2023-05-07T05:52:50;5.43;;;2.60;;
6828;SDS011;17930;48.592;8.868;2023-05-07T05:55:16;5.00;;;2.83;;
6828;SDS011;17930;48.592;8.868;2023-05-07T05:57:44;2.97;;;2.77;;
6828;SDS011;17930;48.592;8.868;2023-05-07T06:00:12;4.43;;;2.40;;
6828;SDS011;17930;48.592;8.868;2023-05-07T06:02:39;3.47;;;2.60;;
6828;SDS011;17930;48.592;8.868;2023-05-07T06:05:06;2.97;;;2.63;;
6828;SDS011;17930;48.592;8.868;2023-05-07T06:07:33;3.97;;;2.27;;
6828;SDS011;17930;48.592;8.868;2023-05-07T06:10:00;4.90;;;2.60;;
6828;SDS011;17930;48.592;8.868;2023-05-07T06:12:27;3.17;;;2.67;;
6828;SDS011;17930;48.592;8.868;2023-05-07T06:14:58;3.77;;;2.70;;
6828;SDS011;17930;48.592;8.868;2023-05-07T06:17:25;5.27;;;2.60;;
6828;SDS011;17930;48.592;8.868;2023-05-07T06:19:51;2.80;;;2.33;;
6828;SDS011;17930;48.592;8.868;2023-05-07T06:22:18;3.27;;;2.83;;
6828;SDS011;17930;48.592;8.868;2023-05-07T06:24:45;3.80;;;2.77;;
6828;SDS011;17930;48.592;8.868;2023-05-07T06:27:12;3.97;;;2.70;;
6828;SDS011;17930;48.592;8.868;2023-05-07T06:29:39;2.93;;;2.63;;
6828;SDS011;17930;48.592;8.868;2023-05-07T06:32:07;3.73;;;2.73;;
6828;SDS011;17930;48.592;8.868;2023-05-07T06:34:35;3.57;;;2.53;;
6828;SDS011;17930;48.592;8.868;2023-05-07T06:37:02;3.43;;;2.53;;
6828;SDS011;17930;48.592;8.868;2023-05-07T06:39:29;2.60;;;2.40;;
6828;SDS011;17930;48.592;8.868;2023-05-07T06:41:56;4.80;;;2.90;;
6828;SDS011;17930;48.592;8.868;2023-05-07T06:44:22;2.93;;;2.63;;
6828;SDS011;17930;48.592;8.868;2023-05-07T06:46:49;2.97;;;2.50;;
6828;SDS011;17930;48.592;8.868;2023-05-07T06:49:17;3.90;;;2.90;;
6828;SDS011;17930;48.592;8.868;2023-05-07T06:51:44;3.27;;;2.43;;
6828;SDS011;17930;48.592;8.868;2023-05-07T06:54:11;3.70;;;2.50;;
6828;SDS011;17930;48.592;8.868;2023-05-07T06:56:38;5.07;;;2.70;;
6828;SDS011;17930;48.592;8.868;2023-05-07T06:59:05;3.33;;;2.83;;
6828;SDS011;17930;48.592;8.868;2023-05-07T07:01:32;3.83;;;2.70;;
6828;SDS011;17930;48.592;8.868;2023-05-07T07:03:59;2.97;;;2.67;;
6828;SDS011;17930;48.592;8.868;2023-05-07T07:06:27;3.13;;;2.37;;
6828;SDS011;17930;48.592;8.868;2023-05-07T07:08:55;3.30;;;2.60;;
6828;SDS011;17930;48.592;8.868;2023-05-07T07:11:22;3.90;;;2.80;;
6828;SDS011;17930;48.592;8.868;2023-05-07T07:13:49;3.10;;;2.57;;
6828;SDS011;17930;48.592;8.868;2023-05-07T07:16:16;3.37;;;3.07;;
6828;SDS011;17930;48.592;8.868;2023-05-07T07:18:43;4.40;;;2.40;;
6828;SDS011;17930;48.592;8.868;2023-05-07T07:21:10;3.47;;;2.80;;
6828;SDS011;17930;48.592;8.868;2023-05-07T07:23:39;5.90;;;2.60;;
6828;SDS011;17930;48.592;8.868;2023-05-07T07:26:05;3.23;;;2.63;;
6828;SDS011;17930;48.592;8.868;2023-05-07T07:28:32;4.10;;;2.67;;
6828;SDS011;17930;48.592;8.868;2023-05-07T07:30:59;3.57;;;3.23;;
6828;SDS011;17930;48.592;8.868;2023-05-07T07:33:25;8.90;;;3.03;;
6828;SDS011;17930;48.592;8.868;2023-05-07T07:35:52;4.00;;;2.53;;
6828;SDS011;17930;48.592;8.868;2023-05-07T07:38:19;4.03;;;2.80;;
6828;SDS011;17930;48.592;8.868;2023-05-07T07:40:48;2.60;;;2.40;;
6828;SDS011;17930;48.592;8.868;2023-05-07T07:43:15;4.13;;;2.70;;
6828;SDS011;17930;48.592;8.868;2023-05-07T07:45:42;4.67;;;3.27;;
6828;SDS011;17930;48.592;8.868;2023-05-07T07:48:09;3.07;;;2.77;;
6828;SDS011;17930;48.592;8.868;2023-05-07T07:50:36;3.13;;;2.83;;
6828;SDS011;17930;48.592;8.868;2023-05-07T07:53:03;3.50;;;2.97;;
6828;SDS011;17930;48.592;8.868;2023-05-07T07:55:30;2.90;;;2.50;;
6828;SDS011;17930;48.592;8.868;2023-05-07T07:57:58;5.10;;;2.60;;
6828;SDS011;17930;48.592;8.868;2023-05-07T08:00:25;3.60;;;2.70;;
6828;SDS011;17930;48.592;8.868;2023-05-07T08:02:52;3.10;;;2.80;;
6828;SDS011;17930;48.592;8.868;2023-05-07T08:05:18;4.20;;;2.60;;
6828;SDS011;17930;48.592;8.868;2023-05-07T08:07:46;2.50;;;2.30;;
6828;SDS011;17930;48.592;8.868;2023-05-07T08:10:17;2.73;;;2.47;;
6828;SDS011;17930;48.592;8.868;2023-05-07T08:12:46;4.37;;;2.70;;
6828;SDS011;17930;48.592;8.868;2023-05-07T08:15:14;3.10;;;2.77;;
6828;SDS011;17930;48.592;8.868;2023-05-07T08:17:41;4.57;;;2.80;;
6828;SDS011;17930;48.592;8.868;2023-05-07T08:20:09;2.70;;;2.40;;
6828;SDS011;17930;48.592;8.868;2023-05-07T08:22:36;2.60;;;2.37;;
6828;SDS011;17930;48.592;8.868;2023-05-07T08:25:03;2.67;;;2.43;;
6828;SDS011;17930;48.592;8.868;2023-05-07T08:27:30;4.90;;;2.77;;
6828;SDS011;17930;48.592;8.868;2023-05-07T08:29:57;2.40;;;2.20;;
6828;SDS011;17930;48.592;8.868;2023-05-07T08:32:25;4.43;;;2.40;;
6828;SDS011;17930;48.592;8.868;2023-05-07T08:34:53;2.67;;;2.20;;
6828;SDS011;17930;48.592;8.868;2023-05-07T08:37:20;3.70;;;2.37;;
6828;SDS011;17930;48.592;8.868;2023-05-07T08:39:47;2.67;;;2.30;;
6828;SDS011;17930;48.592;8.868;2023-05-07T08:42:13;4.23;;;2.10;;
6828;SDS011;17930;48.592;8.868;2023-05-07T08:44:42;3.93;;;2.23;;
6828;SDS011;17930;48.592;8.868;2023-05-07T08:47:11;2.77;;;2.17;;
6828;SDS011;17930;48.592;8.868;2023-05-07T08:49:40;3.33;;;2.43;;
6828;SDS011;17930;48.592;8.868;2023-05-07T08:52:06;3.40;;;2.57;;
6828;SDS011;17930;48.592;8.868;2023-05-07T08:54:33;2.30;;;2.10;;
6828;SDS011;17930;48.592;8.868;2023-05-07T08:57:01;3.00;;;2.20;;
6828;SDS011;17930;48.592;8.868;2023-05-07T08:59:27;4.37;;;2.27;;
6828;SDS011;17930;48.592;8.868;2023-05-07T09:01:55;3.20;;;2.30;;
6828;SDS011;17930;48.592;8.868;2023-05-07T09:04:22;2.40;;;2.20;;
6828;SDS011;17930;48.592;8.868;2023-05-07T09:06:50;2.47;;;2.20;;
6828;SDS011;17930;48.592;8.868;2023-05-07T09:09:16;2.33;;;1.83;;
6828;SDS011;17930;48.592;8.868;2023-05-07T09:11:44;2.53;;;2.00;;
6828;SDS011;17930;48.592;8.868;2023-05-07T09:14:10;2.60;;;2.00;;
6828;SDS011;17930;48.592;8.868;2023-05-07T09:16:37;2.30;;;1.80;;
6828;SDS011;17930;48.592;8.868;2023-05-07T09:19:04;2.83;;;1.90;;
6828;SDS011;17930;48.592;8.868;2023-05-07T09:21:30;2.73;;;1.90;;
6828;SDS011;17930;48.592;8.868;2023-05-07T09:23:58;2.87;;;1.90;;
6828;SDS011;17930;48.592;8.868;2023-05-07T09:26:25;2.63;;;2.13;;
6828;SDS011;17930;48.592;8.868;2023-05-07T09:28:53;3.87;;;2.17;;
6828;SDS011;17930;48.592;8.868;2023-05-07T09:31:19;2.57;;;2.10;;
6828;SDS011;17930;48.592;8.868;2023-05-07T09:33:48;2.10;;;1.80;;
6828;SDS011;17930;48.592;8.868;2023-05-07T09:36:15;2.03;;;1.73;;
6828;SDS011;17930;48.592;8.868;2023-05-07T09:38:42;3.40;;;2.13;;
6828;SDS011;17930;48.592;8.868;2023-05-07T09:41:11;3.03;;;1.90;;
6828;SDS011;17930;48.592;8.868;2023-05-07T09:43:39;2.33;;;2.10;;
6828;SDS011;17930;48.592;8.868;2023-05-07T09:46:07;2.27;;;1.70;;
6828;SDS011;17930;48.592;8.868;2023-05-07T09:48:38;3.10;;;2.80;;
6828;SDS011;17930;48.592;8.868;2023-05-07T09:51:06;3.30;;;2.10;;
6828;SDS011;17930;48.592;8.868;2023-05-07T09:53:43;3.87;;;2.23;;
6828;SDS011;17930;48.592;8.868;2023-05-07T09:56:13;2.43;;;1.73;;
6828;SDS011;17930;48.592;8.868;2023-05-07T09:58:41;3.23;;;1.90;;
6828;SDS011;17930;48.592;8.868;2023-05-07T10:01:10;1.73;;;1.63;;
6828;SDS011;17930;48.592;8.868;2023-05-07T10:03:39;3.30;;;1.90;;
6828;SDS011;17930;48.592;8.868;2023-05-07T10:06:08;1.87;;;1.77;;
6828;SDS011;17930;48.592;8.868;2023-05-07T10:08:36;2.30;;;2.00;;
6828;SDS011;17930;48.592;8.868;2023-05-07T10:11:04;3.80;;;1.93;;
6828;SDS011;17930;48.592;8.868;2023-05-07T10:13:33;4.87;;;1.70;;
6828;SDS011;17930;48.592;8.868;2023-05-07T10:16:03;2.37;;;2.13;;
6828;SDS011;17930;48.592;8.868;2023-05-07T10:18:30;3.17;;;1.77;;
6828;SDS011;17930;48.592;8.868;2023-05-07T10:21:00;4.33;;;2.20;;
6828;SDS011;17930;48.592;8.868;2023-05-07T10:23:31;4.60;;;2.70;;
6828;SDS011;17930;48.592;8.868;2023-05-07T10:25:58;2.30;;;1.97;;
6828;SDS011;17930;48.592;8.868;2023-05-07T10:28:28;3.23;;;1.87;;
6828;SDS011;17930;48.592;8.868;2023-05-07T10:31:01;1.90;;;1.67;;
6828;SDS011;17930;48.592;8.868;2023-05-07T10:33:34;2.53;;;1.77;;
6828;SDS011;17930;48.592;8.868;2023-05-07T10:36:03;3.67;;;1.60;;
6828;SDS011;17930;48.592;8.868;2023-05-07T10:38:33;3.50;;;2.30;;
6828;SDS011;17930;48.592;8.868;2023-05-07T10:41:00;2.23;;;1.77;;
6828;SDS011;17930;48.592;8.868;2023-05-07T10:43:37;2.00;;;1.60;;
6828;SDS011;17930;48.592;8.868;2023-05-07T10:46:16;3.77;;;2.27;;
6828;SDS011;17930;48.592;8.868;2023-05-07T10:51:33;5.43;;;1.80;;
6828;SDS011;17930;48.592;8.868;2023-05-07T10:56:51;2.77;;;1.37;;
6828;SDS011;17930;48.592;8.868;2023-05-07T10:59:30;3.20;;;1.80;;
6828;SDS011;17930;48.592;8.868;2023-05-07T11:02:07;1.70;;;1.43;;
6828;SDS011;17930;48.592;8.868;2023-05-07T11:04:36;1.70;;;1.60;;
6828;SDS011;17930;48.592;8.868;2023-05-07T11:07:15;2.10;;;1.50;;
6828;SDS011;17930;48.592;8.868;2023-05-07T11:10:05;1.90;;;1.27;;
6828;SDS011;17930;48.592;8.868;2023-05-07T11:12:50;2.50;;;1.40;;
6828;SDS011;17930;48.592;8.868;2023-05-07T11:15:33;3.03;;;1.60;;
6828;SDS011;17930;48.592;8.868;2023-05-07T11:18:11;2.77;;;1.73;;
6828;SDS011;17930;48.592;8.868;2023-05-07T11:20:45;3.00;;;1.77;;
6828;SDS011;17930;48.592;8.868;2023-05-07T11:26:18;2.40;;;1.77;;
6828;SDS011;17930;48.592;8.868;2023-05-07T11:28:45;2.03;;;1.50;;
6828;SDS011;17930;48.592;8.868;2023-05-07T11:31:12;1.53;;;1.33;;
6828;SDS011;17930;48.592;8.868;2023-05-07T11:33:40;2.07;;;1.70;;
6828;SDS011;17930;48.592;8.868;2023-05-07T11:36:07;4.17;;;2.00;;
6828;SDS011;17930;48.592;8.868;2023-05-07T11:38:35;1.27;;;1.17;;
6828;SDS011;17930;48.592;8.868;2023-05-07T11:41:02;1.73;;;1.63;;
6828;SDS011;17930;48.592;8.868;2023-05-07T11:43:30;3.37;;;1.50;;
6828;SDS011;17930;48.592;8.868;2023-05-07T11:46:04;3.57;;;1.87;;
6828;SDS011;17930;48.592;8.868;2023-05-07T11:48:33;1.87;;;1.57;;
6828;SDS011;17930;48.592;8.868;2023-05-07T11:51:01;2.30;;;1.73;;
6828;SDS011;17930;48.592;8.868;2023-05-07T11:53:34;8.97;;;1.67;;
6828;SDS011;17930;48.592;8.868;2023-05-07T11:56:05;3.97;;;1.60;;
6828;SDS011;17930;48.592;8.868;2023-05-07T11:58:33;3.43;;;1.80;;
6828;SDS011;17930;48.592;8.868;2023-05-07T12:00:59;2.90;;;1.93;;
6828;SDS011;17930;48.592;8.868;2023-05-07T12:03:26;3.33;;;1.90;;
6828;SDS011;17930;48.592;8.868;2023-05-07T12:05:53;2.17;;;1.70;;
6828;SDS011;17930;48.592;8.868;2023-05-07T12:08:21;2.53;;;1.80;;
6828;SDS011;17930;48.592;8.868;2023-05-07T12:10:49;2.30;;;1.40;;
6828;SDS011;17930;48.592;8.868;2023-05-07T12:13:16;3.80;;;1.73;;
6828;SDS011;17930;48.592;8.868;2023-05-07T12:15:43;2.80;;;1.50;;
6828;SDS011;17930;48.592;8.868;2023-05-07T12:18:10;4.23;;;1.77;;
6828;SDS011;17930;48.592;8.868;2023-05-07T12:20:38;3.10;;;2.00;;
6828;SDS011;17930;48.592;8.868;2023-05-07T12:23:05;3.60;;;1.70;;
6828;SDS011;17930;48.592;8.868;2023-05-07T12:25:35;2.90;;;2.13;;
6828;SDS011;17930;48.592;8.868;2023-05-07T12:28:02;2.83;;;1.90;;
6828;SDS011;17930;48.592;8.868;2023-05-07T12:30:30;3.37;;;2.00;;
6828;SDS011;17930;48.592;8.868;2023-05-07T12:32:57;2.60;;;1.80;;
6828;SDS011;17930;48.592;8.868;2023-05-07T12:35:27;2.40;;;1.70;;
6828;SDS011;17930;48.592;8.868;2023-05-07T12:37:57;3.67;;;2.40;;
6828;SDS011;17930;48.592;8.868;2023-05-07T12:40:34;2.20;;;1.90;;
6828;SDS011;17930;48.592;8.868;2023-05-07T12:43:03;4.33;;;2.20;;
6828;SDS011;17930;48.592;8.868;2023-05-07T12:45:30;2.97;;;1.70;;
6828;SDS011;17930;48.592;8.868;2023-05-07T12:47:57;2.10;;;1.90;;
6828;SDS011;17930;48.592;8.868;2023-05-07T12:50:30;3.27;;;1.80;;
6828;SDS011;17930;48.592;8.868;2023-05-07T12:52:58;6.13;;;2.17;;
6828;SDS011;17930;48.592;8.868;2023-05-07T12:55:25;4.67;;;2.30;;
6828;SDS011;17930;48.592;8.868;2023-05-07T12:57:53;3.73;;;1.70;;
6828;SDS011;17930;48.592;8.868;2023-05-07T13:00:32;6.13;;;2.13;;
6828;SDS011;17930;48.592;8.868;2023-05-07T13:02:59;4.47;;;2.53;;
6828;SDS011;17930;48.592;8.868;2023-05-07T13:05:26;5.07;;;2.43;;
6828;SDS011;17930;48.592;8.868;2023-05-07T13:07:53;6.60;;;2.93;;
6828;SDS011;17930;48.592;8.868;2023-05-07T13:10:19;6.97;;;3.13;;
6828;SDS011;17930;48.592;8.868;2023-05-07T13:12:46;5.87;;;3.50;;
6828;SDS011;17930;48.592;8.868;2023-05-07T13:15:14;6.90;;;3.60;;
6828;SDS011;17930;48.592;8.868;2023-05-07T13:17:41;6.13;;;3.60;;
6828;SDS011;17930;48.592;8.868;2023-05-07T13:20:09;6.43;;;3.70;;
6828;SDS011;17930;48.592;8.868;2023-05-07T13:22:36;6.03;;;3.53;;
6828;SDS011;17930;48.592;8.868;2023-05-07T13:25:03;6.10;;;3.13;;
6828;SDS011;17930;48.592;8.868;2023-05-07T13:27:30;7.57;;;2.90;;
6828;SDS011;17930;48.592;8.868;2023-05-07T13:29:56;4.53;;;3.10;;
6828;SDS011;17930;48.592;8.868;2023-05-07T13:32:24;5.93;;;3.47;;
6828;SDS011;17930;48.592;8.868;2023-05-07T13:34:51;4.70;;;3.43;;
6828;SDS011;17930;48.592;8.868;2023-05-07T13:37:18;5.40;;;3.17;;
6828;SDS011;17930;48.592;8.868;2023-05-07T13:39:45;6.93;;;4.10;;
6828;SDS011;17930;48.592;8.868;2023-05-07T13:42:12;7.27;;;4.50;;
6828;SDS011;17930;48.592;8.868;2023-05-07T13:44:38;8.43;;;5.00;;
6828;SDS011;17930;48.592;8.868;2023-05-07T13:47:05;7.27;;;4.90;;
6828;SDS011;17930;48.592;8.868;2023-05-07T13:49:33;6.47;;;3.97;;
6828;SDS011;17930;48.592;8.868;2023-05-07T13:52:00;7.73;;;4.27;;
6828;SDS011;17930;48.592;8.868;2023-05-07T13:54:26;7.93;;;3.73;;
6828;SDS011;17930;48.592;8.868;2023-05-07T13:56:53;7.27;;;5.10;;
6828;SDS011;17930;48.592;8.868;2023-05-07T13:59:20;16.37;;;6.90;;
6828;SDS011;17930;48.592;8.868;2023-05-07T14:01:46;25.57;;;13.57;;
6828;SDS011;17930;48.592;8.868;2023-05-07T14:04:13;5.50;;;4.20;;
6828;SDS011;17930;48.592;8.868;2023-05-07T14:06:41;18.57;;;5.17;;
6828;SDS011;17930;48.592;8.868;2023-05-07T14:09:08;9.40;;;4.60;;
6828;SDS011;17930;48.592;8.868;2023-05-07T14:11:37;7.07;;;4.67;;
6828;SDS011;17930;48.592;8.868;2023-05-07T14:14:04;7.33;;;4.60;;
6828;SDS011;17930;48.592;8.868;2023-05-07T14:16:31;8.47;;;5.03;;
6828;SDS011;17930;48.592;8.868;2023-05-07T14:18:58;6.07;;;4.37;;
6828;SDS011;17930;48.592;8.868;2023-05-07T14:21:24;5.77;;;4.57;;
6828;SDS011;17930;48.592;8.868;2023-05-07T14:23:52;8.90;;;4.90;;
6828;SDS011;17930;48.592;8.868;2023-05-07T14:26:31;11.23;;;7.87;;
6828;SDS011;17930;48.592;8.868;2023-05-07T14:28:58;6.43;;;4.90;;
6828;SDS011;17930;48.592;8.868;2023-05-07T14:31:26;9.73;;;6.30;;
6828;SDS011;17930;48.592;8.868;2023-05-07T14:33:52;5.20;;;3.50;;
6828;SDS011;17930;48.592;8.868;2023-05-07T14:36:19;5.33;;;3.10;;
6828;SDS011;17930;48.592;8.868;2023-05-07T14:38:53;4.00;;;3.30;;
6828;SDS011;17930;48.592;8.868;2023-05-07T14:41:20;5.70;;;3.60;;
6828;SDS011;17930;48.592;8.868;2023-05-07T14:43:50;11.07;;;3.70;;
6828;SDS011;17930;48.592;8.868;2023-05-07T14:46:17;4.13;;;3.20;;
6828;SDS011;17930;48.592;8.868;2023-05-07T14:48:45;7.90;;;5.50;;
6828;SDS011;17930;48.592;8.868;2023-05-07T14:51:12;5.53;;;4.70;;
6828;SDS011;17930;48.592;8.868;2023-05-07T14:56:54;6.63;;;4.80;;
6828;SDS011;17930;48.592;8.868;2023-05-07T14:59:22;6.00;;;4.43;;
6828;SDS011;17930;48.592;8.868;2023-05-07T15:01:50;3.77;;;3.30;;
6828;SDS011;17930;48.592;8.868;2023-05-07T15:04:17;6.17;;;2.97;;
6828;SDS011;17930;48.592;8.868;2023-05-07T15:06:44;6.37;;;2.90;;
6828;SDS011;17930;48.592;8.868;2023-05-07T15:09:13;3.90;;;2.83;;
6828;SDS011;17930;48.592;8.868;2023-05-07T15:11:46;4.70;;;2.70;;
6828;SDS011;17930;48.592;8.868;2023-05-07T15:14:33;2.50;;;2.30;;
6828;SDS011;17930;48.592;8.868;2023-05-07T15:17:01;3.33;;;2.67;;